Time;durP1;ratioP1;P1;durP2;ratioP2;P2;SDS_P1;SDS_P2;PMS_P1;PMS_P2;Temp;Humidity;BMP_temperature;BMP_pressure;BME280_temperature;BME280_humidity;BME280_pressure;Samples;Min_cycle;Max_cycle;Signal;HPM_P1;HPM_P2
2023/11/24 00:02:05;;;;;;;4.20;1.05;;;9.70;99.90;;;;;;5079463;28;20062;-38
2023/11/24 00:04:32;;;;;;;4.10;1.10;;;9.60;99.90;;;;;;5068884;28;20021;-38
2023/11/24 00:06:58;;;;;;;5.35;1.30;;;9.50;99.90;;;;;;5066657;28;20035;-38
2023/11/24 00:09:26;;;;;;;5.40;1.42;;;9.40;99.90;;;;;;5072099;28;20033;-38
2023/11/24 00:11:52;;;;;;;3.08;0.90;;;9.30;99.90;;;;;;5064983;28;20032;-37
2023/11/24 00:14:17;;;;;;;4.90;1.13;;;9.30;99.90;;;;;;5073598;28;20121;-36
2023/11/24 00:16:49;;;;;;;5.07;1.20;;;9.30;99.90;;;;;;5065457;28;20090;-36
2023/11/24 00:19:17;;;;;;;3.85;0.95;;;9.30;99.90;;;;;;5072481;28;20039;-39
2023/11/24 00:21:44;;;;;;;3.05;1.00;;;9.20;99.90;;;;;;5081275;28;20020;-36
2023/11/24 00:24:10;;;;;;;5.25;1.20;;;9.20;99.90;;;;;;5074262;28;20024;-35
2023/11/24 00:26:36;;;;;;;4.95;0.90;;;9.20;99.90;;;;;;5062739;28;20025;-37
2023/11/24 00:29:02;;;;;;;5.53;1.23;;;9.10;99.90;;;;;;5073366;28;20031;-37
2023/11/24 00:31:28;;;;;;;6.65;1.33;;;9.20;99.90;;;;;;5062789;28;20048;-37
2023/11/24 00:33:55;;;;;;;5.07;1.10;;;9.20;99.90;;;;;;5074052;28;20471;-37
2023/11/24 00:36:20;;;;;;;7.65;1.52;;;9.30;99.90;;;;;;5062358;28;20645;-37
2023/11/24 00:38:49;;;;;;;9.38;1.50;;;9.30;99.90;;;;;;5073116;28;20494;-36
2023/11/24 00:41:16;;;;;;;5.07;1.50;;;9.30;99.90;;;;;;5064002;28;20028;-37
2023/11/24 00:43:42;;;;;;;5.65;1.27;;;9.40;99.90;;;;;;5069826;28;20771;-35
2023/11/24 00:46:11;;;;;;;5.20;1.15;;;9.40;99.90;;;;;;5065724;28;20033;-36
2023/11/24 00:48:37;;;;;;;7.68;1.85;;;9.40;99.90;;;;;;5068089;28;20020;-37
2023/11/24 00:51:04;;;;;;;6.97;1.52;;;9.40;99.90;;;;;;5076392;28;20078;-36
2023/11/24 00:53:30;;;;;;;3.85;1.20;;;9.50;99.90;;;;;;5081625;28;20620;-37
2023/11/24 00:55:59;;;;;;;7.05;2.53;;;9.50;99.90;;;;;;5081021;28;20036;-36
2023/11/24 00:58:24;;;;;;;7.22;1.00;;;9.50;99.90;;;;;;5082148;28;20028;-36
2023/11/24 01:00:51;;;;;;;7.03;1.45;;;9.50;99.90;;;;;;5081920;28;20105;-36
2023/11/24 01:03:17;;;;;;;5.47;1.23;;;9.50;99.90;;;;;;5081680;28;20865;-36
2023/11/24 01:05:43;;;;;;;6.68;1.50;;;9.60;99.90;;;;;;5081777;28;20026;-36
2023/11/24 01:08:08;;;;;;;5.25;1.55;;;9.50;99.90;;;;;;5081518;28;20040;-36
2023/11/24 01:10:34;;;;;;;7.55;1.70;;;9.50;99.90;;;;;;5081447;28;20102;-35
2023/11/24 01:13:00;;;;;;;6.57;1.33;;;9.40;99.90;;;;;;5081919;28;20024;-36
2023/11/24 01:15:26;;;;;;;5.95;1.40;;;9.40;99.90;;;;;;5081797;28;20079;-37
2023/11/24 01:17:52;;;;;;;4.63;1.25;;;9.30;99.90;;;;;;5080039;28;20063;-37
2023/11/24 01:20:18;;;;;;;5.32;1.13;;;9.40;99.90;;;;;;5081849;28;20074;-36
2023/11/24 01:22:47;;;;;;;5.30;1.95;;;9.30;99.90;;;;;;5081513;28;20016;-37
2023/11/24 01:25:12;;;;;;;6.35;1.30;;;9.30;99.90;;;;;;5081024;28;20059;-36
2023/11/24 01:27:38;;;;;;;8.07;1.85;;;9.20;99.90;;;;;;5082163;28;20052;-37
2023/11/24 01:30:09;;;;;;;3.78;1.27;;;9.20;99.90;;;;;;5081004;28;20492;-38
2023/11/24 01:32:35;;;;;;;5.43;1.27;;;9.20;99.90;;;;;;5082100;28;20131;-37
2023/11/24 01:35:01;;;;;;;3.85;1.23;;;9.20;99.90;;;;;;5081895;28;20027;-36
2023/11/24 01:37:29;;;;;;;6.95;1.25;;;9.20;99.90;;;;;;5082224;28;20034;-35
2023/11/24 01:39:55;;;;;;;9.10;1.55;;;9.20;99.90;;;;;;5080444;28;20026;-35
2023/11/24 01:42:21;;;;;;;10.23;1.95;;;9.10;99.90;;;;;;5081200;28;20153;-36
2023/11/24 01:44:47;;;;;;;10.43;2.15;;;9.10;99.90;;;;;;5079988;28;20498;-36
2023/11/24 01:47:13;;;;;;;6.15;1.40;;;9.10;99.90;;;;;;5081501;28;20028;-37
2023/11/24 01:49:39;;;;;;;6.30;1.50;;;9.10;99.90;;;;;;5080967;28;20634;-36
2023/11/24 01:52:06;;;;;;;8.07;1.50;;;9.00;99.90;;;;;;5080061;28;20815;-37
2023/11/24 01:54:36;;;;;;;5.57;2.45;;;9.10;99.90;;;;;;5080752;28;20684;-36
2023/11/24 01:57:07;;;;;;;7.05;1.75;;;9.00;99.90;;;;;;5080212;28;20557;-36
2023/11/24 01:59:33;;;;;;;6.13;1.45;;;9.00;99.90;;;;;;5081412;28;20055;-36
2023/11/24 02:01:59;;;;;;;9.13;2.13;;;9.00;99.90;;;;;;5080551;28;20032;-36
2023/11/24 02:04:25;;;;;;;6.97;1.65;;;9.00;99.90;;;;;;5081330;28;20130;-36
2023/11/24 02:06:51;;;;;;;6.57;1.75;;;9.00;99.90;;;;;;5079631;28;20435;-37
2023/11/24 02:09:17;;;;;;;7.60;1.88;;;9.00;99.90;;;;;;5081264;28;20028;-37
2023/11/24 02:11:43;;;;;;;4.30;1.30;;;9.00;99.90;;;;;;5080874;28;20024;-37
2023/11/24 02:14:09;;;;;;;8.45;1.48;;;9.00;99.90;;;;;;5080585;28;20119;-37
2023/11/24 02:16:35;;;;;;;4.95;1.40;;;9.00;99.90;;;;;;5081016;28;20022;-36
2023/11/24 02:19:01;;;;;;;6.60;2.13;;;9.00;99.90;;;;;;5080362;28;20475;-37
2023/11/24 02:21:27;;;;;;;7.13;0.95;;;9.00;99.90;;;;;;5080618;28;20035;-36
2023/11/24 02:23:53;;;;;;;9.50;1.83;;;9.00;99.90;;;;;;5080683;28;20538;-37
2023/11/24 02:26:19;;;;;;;5.13;1.30;;;8.90;99.90;;;;;;5081059;28;20016;-37
2023/11/24 02:28:44;;;;;;;11.13;1.58;;;9.00;99.90;;;;;;5079888;28;20012;-37
2023/11/24 02:31:11;;;;;;;5.80;1.50;;;8.90;99.90;;;;;;5080464;28;20030;-37
2023/11/24 02:33:40;;;;;;;6.63;1.45;;;8.90;99.90;;;;;;5080937;28;20024;-38
2023/11/24 02:36:08;;;;;;;7.18;1.95;;;8.90;99.90;;;;;;5079702;28;20029;-36
2023/11/24 02:38:34;;;;;;;9.57;1.48;;;8.90;99.90;;;;;;5080357;28;20020;-37
2023/11/24 02:41:00;;;;;;;6.38;1.60;;;8.80;99.90;;;;;;5080106;28;20024;-37
2023/11/24 02:43:27;;;;;;;6.50;1.17;;;8.80;99.90;;;;;;5080236;28;20106;-37
2023/11/24 02:45:53;;;;;;;6.10;1.52;;;8.90;99.90;;;;;;5079632;28;20027;-37
2023/11/24 02:48:18;;;;;;;6.28;1.30;;;8.90;99.90;;;;;;5079455;28;20028;-41
2023/11/24 02:50:44;;;;;;;6.05;1.20;;;8.90;99.90;;;;;;5080878;28;20102;-37
2023/11/24 02:53:09;;;;;;;5.80;1.20;;;8.90;99.90;;;;;;5080527;28;20027;-38
2023/11/24 02:55:35;;;;;;;5.25;1.58;;;8.90;99.90;;;;;;5080016;28;20565;-39
2023/11/24 02:58:01;;;;;;;6.53;1.30;;;8.80;99.90;;;;;;5082632;28;20661;-36
2023/11/24 03:00:27;;;;;;;6.82;0.98;;;8.80;99.90;;;;;;5084824;28;20038;-36
2023/11/24 03:02:53;;;;;;;4.40;1.25;;;8.80;99.90;;;;;;5083175;28;20020;-36
2023/11/24 03:05:19;;;;;;;8.35;1.60;;;8.80;99.90;;;;;;5084961;28;20051;-37
2023/11/24 03:07:44;;;;;;;6.20;1.80;;;8.70;99.90;;;;;;5084247;28;20012;-35
2023/11/24 03:10:11;;;;;;;3.95;0.95;;;8.70;99.90;;;;;;5084068;28;20054;-37
2023/11/24 03:12:37;;;;;;;6.03;1.13;;;8.70;99.90;;;;;;5084530;28;20465;-37
2023/11/24 03:15:03;;;;;;;4.65;1.27;;;8.70;99.90;;;;;;5084011;28;20114;-38
2023/11/24 03:17:32;;;;;;;2.78;1.00;;;8.60;99.90;;;;;;5084144;28;20096;-36
2023/11/24 03:19:57;;;;;;;6.25;1.10;;;8.70;99.90;;;;;;5083610;28;20032;-36
2023/11/24 03:22:23;;;;;;;6.30;1.13;;;8.70;99.90;;;;;;5084797;28;20057;-36
2023/11/24 03:24:48;;;;;;;5.70;1.38;;;8.70;99.90;;;;;;5082659;28;20043;-38
2023/11/24 03:27:14;;;;;;;3.78;1.05;;;8.70;99.90;;;;;;5084401;28;20023;-38
2023/11/24 03:29:40;;;;;;;3.67;1.02;;;8.70;99.90;;;;;;5083967;28;20662;-37
2023/11/24 03:32:06;;;;;;;3.28;0.93;;;8.80;99.90;;;;;;5083121;28;20460;-37
2023/11/24 03:34:32;;;;;;;3.22;1.02;;;8.80;99.90;;;;;;5083853;28;20879;-36
2023/11/24 03:36:58;;;;;;;4.45;1.10;;;8.80;99.90;;;;;;5083626;28;20028;-35
2023/11/24 03:39:23;;;;;;;3.78;1.00;;;8.80;99.90;;;;;;5082839;28;20027;-37
2023/11/24 03:41:49;;;;;;;5.20;1.42;;;8.80;99.90;;;;;;5082880;28;20028;-36
2023/11/24 03:44:14;;;;;;;4.78;1.20;;;8.80;99.90;;;;;;5083198;28;20026;-37
2023/11/24 03:46:40;;;;;;;6.53;1.42;;;8.80;99.90;;;;;;5083833;28;20108;-37
2023/11/24 03:49:11;;;;;;;5.75;1.20;;;8.80;99.90;;;;;;5083624;28;20495;-36
2023/11/24 03:51:36;;;;;;;8.10;1.40;;;8.80;99.90;;;;;;5083583;28;20076;-36
2023/11/24 03:54:02;;;;;;;4.53;1.15;;;8.80;99.90;;;;;;5083230;28;20119;-35
2023/11/24 03:56:28;;;;;;;3.58;0.93;;;8.70;99.90;;;;;;5084442;28;20058;-35
2023/11/24 03:58:54;;;;;;;5.28;1.08;;;8.70;99.90;;;;;;5082666;28;20027;-35
2023/11/24 04:01:19;;;;;;;4.43;1.08;;;8.60;99.90;;;;;;5083659;28;20090;-36
2023/11/24 04:03:46;;;;;;;3.97;0.90;;;8.60;99.90;;;;;;5083545;28;20031;-36
2023/11/24 04:06:15;;;;;;;5.88;1.33;;;8.50;99.90;;;;;;5082651;28;20028;-37
2023/11/24 04:08:41;;;;;;;8.18;1.40;;;8.50;99.90;;;;;;5082773;28;20035;-37
2023/11/24 04:11:07;;;;;;;3.75;1.27;;;8.50;99.90;;;;;;5083042;28;20028;-35
2023/11/24 04:13:32;;;;;;;3.17;0.80;;;8.50;99.90;;;;;;5082953;28;20024;-37
2023/11/24 04:15:58;;;;;;;3.50;1.15;;;8.50;99.90;;;;;;5082239;28;20063;-36
2023/11/24 04:18:24;;;;;;;6.32;1.42;;;8.50;99.90;;;;;;5083837;28;20020;-37
2023/11/24 04:20:51;;;;;;;1.90;0.80;;;8.50;99.90;;;;;;5081999;28;20024;-37
2023/11/24 04:23:18;;;;;;;3.10;0.80;;;8.50;99.90;;;;;;5083759;28;20028;-37
2023/11/24 04:25:44;;;;;;;5.00;1.77;;;8.50;99.90;;;;;;5082957;28;20019;-37
2023/11/24 04:28:16;;;;;;;6.95;1.20;;;8.50;99.90;;;;;;5082673;28;20035;-37
2023/11/24 04:30:42;;;;;;;3.00;1.00;;;8.50;99.90;;;;;;5083489;28;20016;-37
2023/11/24 04:33:08;;;;;;;5.35;1.35;;;8.50;99.90;;;;;;5081842;28;20840;-37
2023/11/24 04:35:34;;;;;;;5.97;0.98;;;8.50;99.90;;;;;;5082129;28;20038;-37
2023/11/24 04:38:00;;;;;;;4.60;1.10;;;8.40;99.90;;;;;;5082748;28;20028;-37
2023/11/24 04:40:25;;;;;;;4.68;1.30;;;8.40;99.90;;;;;;5083099;28;20210;-36
2023/11/24 04:42:52;;;;;;;6.00;1.40;;;8.40;99.90;;;;;;5081927;28;20143;-37
2023/11/24 04:45:18;;;;;;;5.63;1.33;;;8.40;99.90;;;;;;5082750;28;20578;-37
2023/11/24 04:47:43;;;;;;;2.17;0.70;;;8.40;99.90;;;;;;5080658;28;20406;-36
2023/11/24 04:50:09;;;;;;;2.42;0.68;;;8.40;99.90;;;;;;5082105;28;20032;-37
2023/11/24 04:52:35;;;;;;;4.20;1.02;;;8.40;99.90;;;;;;5069733;28;20035;-37
2023/11/24 04:55:02;;;;;;;4.90;1.42;;;8.40;99.90;;;;;;5081783;28;20811;-37
2023/11/24 04:57:27;;;;;;;6.22;1.52;;;8.40;99.90;;;;;;5051974;28;20032;-37
2023/11/24 04:59:53;;;;;;;5.25;0.93;;;8.40;99.90;;;;;;5079567;28;20036;-37
2023/11/24 05:02:18;;;;;;;7.13;1.50;;;8.40;99.90;;;;;;5072954;28;20035;-37
2023/11/24 05:04:44;;;;;;;4.80;0.95;;;8.40;99.90;;;;;;5077699;28;20619;-36
2023/11/24 05:07:10;;;;;;;3.83;1.33;;;8.40;99.90;;;;;;5075721;28;20537;-37
2023/11/24 05:09:40;;;;;;;7.07;1.15;;;8.30;99.90;;;;;;5074570;28;20827;-38
2023/11/24 05:12:06;;;;;;;5.22;1.00;;;8.30;99.90;;;;;;5077861;28;20031;-37
2023/11/24 05:14:31;;;;;;;3.60;0.95;;;8.30;99.90;;;;;;5073935;28;20036;-37
2023/11/24 05:16:57;;;;;;;5.75;1.20;;;8.30;99.90;;;;;;5079159;28;20036;-36
2023/11/24 05:19:22;;;;;;;5.18;1.50;;;8.20;99.90;;;;;;5070299;28;20027;-37
2023/11/24 05:21:48;;;;;;;7.95;1.15;;;8.20;99.90;;;;;;5079975;28;20029;-37
2023/11/24 05:24:13;;;;;;;3.33;1.20;;;8.20;99.90;;;;;;5070393;28;20020;-37
2023/11/24 05:26:39;;;;;;;4.53;0.80;;;8.20;99.90;;;;;;5082457;28;20111;-37
2023/11/24 05:29:05;;;;;;;2.90;0.93;;;8.20;99.90;;;;;;5073696;28;20024;-36
2023/11/24 05:31:30;;;;;;;4.88;0.80;;;8.30;99.90;;;;;;5060809;28;20039;-36
2023/11/24 05:33:56;;;;;;;4.35;1.35;;;8.30;99.90;;;;;;5073164;28;20028;-36
2023/11/24 05:36:23;;;;;;;4.03;1.00;;;8.30;99.90;;;;;;5061353;28;20034;-36
2023/11/24 05:38:49;;;;;;;3.03;0.90;;;8.30;99.90;;;;;;5071479;28;20035;-36
2023/11/24 05:41:16;;;;;;;3.58;0.70;;;8.30;99.90;;;;;;5063142;28;20044;-37
2023/11/24 05:43:43;;;;;;;3.13;1.00;;;8.30;99.90;;;;;;5068983;28;20027;-36
2023/11/24 05:46:08;;;;;;;6.00;1.13;;;8.30;99.90;;;;;;5063574;28;20055;-36
2023/11/24 05:48:34;;;;;;;5.35;1.02;;;8.30;99.90;;;;;;5066819;28;20024;-37
2023/11/24 05:51:00;;;;;;;9.65;1.70;;;8.20;99.90;;;;;;5074350;28;20036;-36
2023/11/24 05:53:25;;;;;;;6.80;1.40;;;8.20;99.90;;;;;;5081691;28;20020;-45
2023/11/24 05:55:52;;;;;;;10.02;2.13;;;8.10;99.90;;;;;;5081017;28;20032;-37
2023/11/24 05:58:18;;;;;;;6.03;1.40;;;8.00;99.90;;;;;;5080586;28;20368;-37
2023/11/24 06:00:44;;;;;;;6.43;1.70;;;7.90;99.90;;;;;;5081385;28;20028;-36
2023/11/24 06:03:10;;;;;;;7.43;1.20;;;7.80;99.90;;;;;;5080710;28;20070;-36
2023/11/24 06:05:36;;;;;;;6.25;1.60;;;7.70;99.90;;;;;;5081456;28;20059;-37
2023/11/24 06:08:04;;;;;;;5.07;1.20;;;7.70;99.90;;;;;;5081884;28;20464;-37
2023/11/24 06:10:31;;;;;;;4.75;1.08;;;7.60;99.90;;;;;;5081363;28;20028;-36
2023/11/24 06:12:57;;;;;;;5.55;1.10;;;7.60;99.90;;;;;;5080009;28;20035;-38
2023/11/24 06:15:23;;;;;;;5.05;1.20;;;7.60;99.90;;;;;;5080913;28;20040;-36
2023/11/24 06:17:49;;;;;;;6.78;1.48;;;7.60;99.90;;;;;;5080333;28;20020;-37
2023/11/24 06:20:16;;;;;;;3.25;0.90;;;7.60;99.90;;;;;;5079813;28;20536;-36
2023/11/24 06:22:43;;;;;;;4.70;0.93;;;7.60;99.90;;;;;;5080866;28;20024;-36
2023/11/24 06:25:10;;;;;;;2.85;0.90;;;7.60;99.90;;;;;;5080680;28;20024;-37
2023/11/24 06:27:36;;;;;;;3.90;0.95;;;7.60;99.90;;;;;;5080575;28;20024;-36
2023/11/24 06:30:05;;;;;;;6.13;1.23;;;7.60;99.90;;;;;;5080111;28;20052;-37
2023/11/24 06:32:31;;;;;;;6.25;1.20;;;7.60;99.90;;;;;;5081065;28;20031;-37
2023/11/24 06:34:57;;;;;;;5.18;1.13;;;7.60;99.90;;;;;;5079109;28;20089;-37
2023/11/24 06:37:36;;;;;;;4.72;1.05;;;7.60;99.90;;;;;;5081229;28;20034;-37
2023/11/24 06:40:05;;;;;;;4.82;1.15;;;7.60;99.90;;;;;;5079465;28;20028;-37
2023/11/24 06:42:30;;;;;;;4.97;1.10;;;7.60;99.90;;;;;;5081607;28;20032;-37
2023/11/24 06:44:56;;;;;;;6.72;1.55;;;7.60;99.90;;;;;;5078372;28;20024;-36
2023/11/24 06:47:23;;;;;;;3.25;1.27;;;7.60;99.90;;;;;;5080251;28;20133;-37
2023/11/24 06:49:53;;;;;;;7.20;1.58;;;7.60;99.90;;;;;;5079546;28;20079;-37
2023/11/24 06:52:18;;;;;;;3.28;0.70;;;7.60;99.90;;;;;;5080494;28;20119;-36
2023/11/24 06:54:44;;;;;;;6.22;1.10;;;7.60;99.90;;;;;;5078884;28;20036;-37
2023/11/24 06:57:10;;;;;;;5.53;1.30;;;7.60;99.90;;;;;;5080025;28;20024;-36
2023/11/24 06:59:37;;;;;;;7.50;1.30;;;7.50;99.90;;;;;;5080302;28;20646;-37
2023/11/24 07:02:03;;;;;;;3.88;0.77;;;7.50;99.90;;;;;;5078848;28;20028;-37
2023/11/24 07:04:29;;;;;;;3.05;0.90;;;7.40;99.90;;;;;;5079978;28;20067;-36
2023/11/24 07:06:54;;;;;;;3.70;1.08;;;7.30;99.90;;;;;;5079335;28;20107;-37
2023/11/24 07:09:21;;;;;;;2.47;0.80;;;7.30;99.90;;;;;;5079031;28;20024;-36
2023/11/24 07:11:47;;;;;;;4.90;1.30;;;7.30;99.90;;;;;;5079155;28;20053;-36
2023/11/24 07:14:13;;;;;;;3.65;1.10;;;7.20;99.90;;;;;;5079396;28;20109;-37
2023/11/24 07:16:38;;;;;;;2.92;0.98;;;7.20;99.90;;;;;;5078828;28;20036;-37
2023/11/24 07:19:05;;;;;;;4.90;0.98;;;7.30;99.90;;;;;;5079614;28;20028;-36
2023/11/24 07:21:31;;;;;;;4.35;0.93;;;7.20;99.90;;;;;;5079750;28;20020;-36
2023/11/24 07:23:56;;;;;;;3.10;0.73;;;7.30;99.90;;;;;;5078193;28;20044;-37
2023/11/24 07:26:22;;;;;;;2.25;1.10;;;7.20;99.90;;;;;;5080073;28;20021;-37
2023/11/24 07:28:47;;;;;;;2.78;0.75;;;7.20;99.90;;;;;;5080378;28;20020;-36
2023/11/24 07:31:17;;;;;;;4.72;0.98;;;7.30;99.90;;;;;;5079116;28;20463;-36
2023/11/24 07:33:48;;;;;;;5.75;1.30;;;7.30;99.90;;;;;;5079413;28;20195;-35
2023/11/24 07:36:14;;;;;;;8.35;1.20;;;7.20;99.90;;;;;;5078717;28;20123;-36
2023/11/24 07:38:40;;;;;;;4.38;1.45;;;7.10;99.90;;;;;;5078761;28;20551;-36
2023/11/24 07:41:08;;;;;;;4.35;0.95;;;7.10;99.90;;;;;;5078558;28;20027;-36
2023/11/24 07:43:33;;;;;;;5.72;1.15;;;7.10;99.90;;;;;;5080547;28;20145;-34
2023/11/24 07:45:59;;;;;;;3.22;0.75;;;7.10;99.90;;;;;;5082497;28;20467;-36
2023/11/24 07:48:25;;;;;;;4.80;0.85;;;7.10;99.90;;;;;;5082099;28;20382;-37
2023/11/24 07:50:50;;;;;;;6.03;0.90;;;7.10;99.90;;;;;;5082310;28;20048;-36
2023/11/24 07:53:17;;;;;;;4.57;1.70;;;7.10;99.90;;;;;;5072409;28;20020;-36
2023/11/24 07:55:43;;;;;;;4.15;0.90;;;7.20;99.90;;;;;;5081077;28;20456;-36
2023/11/24 07:58:08;;;;;;;3.58;0.88;;;7.20;99.90;;;;;;5073538;28;20539;-35
2023/11/24 08:00:34;;;;;;;3.13;1.00;;;7.20;99.90;;;;;;5078700;28;20081;-35
2023/11/24 08:03:04;;;;;;;6.50;0.90;;;7.20;99.90;;;;;;5075849;28;20016;-35
2023/11/24 08:05:29;;;;;;;3.75;0.70;;;7.10;99.90;;;;;;5075894;28;20028;-36
2023/11/24 08:07:55;;;;;;;4.32;1.00;;;7.10;99.90;;;;;;5080953;28;20077;-36
2023/11/24 08:10:21;;;;;;;2.88;1.00;;;7.10;99.90;;;;;;5071500;28;20020;-36
2023/11/24 08:12:47;;;;;;;2.47;0.77;;;7.20;99.90;;;;;;5062690;28;20044;-37
2023/11/24 08:15:13;;;;;;;5.90;1.65;;;7.20;99.90;;;;;;5073161;28;20033;-36
2023/11/24 08:17:39;;;;;;;6.05;0.70;;;7.20;99.90;;;;;;5063529;28;20036;-36
2023/11/24 08:20:10;;;;;;;5.47;0.90;;;7.20;99.90;;;;;;5072943;28;20115;-36
2023/11/24 08:22:38;;;;;;;4.55;0.90;;;7.20;99.90;;;;;;5045695;28;20051;-39
2023/11/24 08:25:06;;;;;;;2.35;0.85;;;7.20;99.90;;;;;;5074327;28;20105;-38
2023/11/24 08:27:32;;;;;;;2.50;1.00;;;7.20;99.90;;;;;;5062669;28;20033;-37
2023/11/24 08:29:58;;;;;;;4.88;1.30;;;7.10;99.90;;;;;;5074045;28;20603;-35
2023/11/24 08:32:25;;;;;;;4.82;0.80;;;7.10;99.90;;;;;;5061964;28;20107;-36
2023/11/24 08:34:52;;;;;;;4.95;0.70;;;7.00;99.90;;;;;;5072826;28;20032;-37
2023/11/24 08:37:18;;;;;;;3.33;0.77;;;7.00;99.90;;;;;;5042650;28;20021;-38
2023/11/24 08:39:45;;;;;;;3.65;0.70;;;7.00;99.90;;;;;;5065552;28;20190;-37
2023/11/24 08:42:10;;;;;;;2.42;0.70;;;6.90;99.90;;;;;;5063699;28;20025;-37
2023/11/24 08:44:36;;;;;;;2.40;0.82;;;6.90;99.90;;;;;;5069173;28;20635;-37
2023/11/24 08:47:03;;;;;;;2.03;0.80;;;6.80;99.90;;;;;;5066836;28;20120;-37
2023/11/24 08:49:29;;;;;;;4.30;0.70;;;6.80;99.90;;;;;;5066944;28;20114;-37
2023/11/24 08:51:54;;;;;;;4.72;1.27;;;6.80;99.90;;;;;;5069209;28;20060;-37
2023/11/24 08:54:22;;;;;;;3.22;0.80;;;6.80;99.90;;;;;;5062908;28;20033;-37
2023/11/24 08:56:48;;;;;;;2.63;0.63;;;6.70;99.90;;;;;;5071739;28;20058;-35
2023/11/24 08:59:13;;;;;;;3.85;0.90;;;6.70;99.90;;;;;;5064039;28;20448;-37
2023/11/24 09:01:39;;;;;;;2.05;0.70;;;6.70;99.90;;;;;;5072283;28;20115;-37
2023/11/24 09:04:10;;;;;;;1.90;0.63;;;6.70;99.90;;;;;;5062808;28;20025;-36
2023/11/24 09:06:38;;;;;;;3.13;0.77;;;6.60;99.90;;;;;;5071147;28;20029;-36
2023/11/24 09:09:08;;;;;;;1.52;0.50;;;6.70;99.90;;;;;;5061076;28;20066;-36
2023/11/24 09:11:34;;;;;;;4.80;0.80;;;6.70;99.90;;;;;;5074617;28;20024;-36
2023/11/24 09:14:04;;;;;;;2.75;0.68;;;6.70;99.90;;;;;;5062037;28;20055;-42
2023/11/24 09:16:30;;;;;;;3.38;0.65;;;6.70;99.90;;;;;;5074458;28;20063;-36
2023/11/24 09:18:58;;;;;;;4.18;0.65;;;6.70;99.90;;;;;;5062140;28;20470;-36
2023/11/24 09:21:24;;;;;;;1.88;0.50;;;6.80;99.90;;;;;;5074399;28;20020;-38
2023/11/24 09:23:49;;;;;;;2.75;0.60;;;6.80;99.90;;;;;;5061228;28;20078;-37
2023/11/24 09:26:15;;;;;;;3.15;0.63;;;6.90;99.90;;;;;;5072005;28;20043;-37
2023/11/24 09:28:41;;;;;;;5.03;0.80;;;6.90;99.90;;;;;;5064986;28;20029;-37
2023/11/24 09:31:12;;;;;;;1.52;0.45;;;6.90;99.90;;;;;;5067863;28;20414;-36
2023/11/24 09:33:38;;;;;;;4.63;0.85;;;7.00;99.90;;;;;;5067274;28;20246;-35
2023/11/24 09:36:05;;;;;;;1.92;0.55;;;7.00;99.90;;;;;;5065884;28;20028;-36
2023/11/24 09:38:33;;;;;;;3.80;0.68;;;7.00;99.90;;;;;;5069342;28;20029;-37
2023/11/24 09:41:08;;;;;;;3.63;0.40;;;7.00;99.90;;;;;;5064822;28;20547;-37
2023/11/24 09:43:37;;;;;;;1.58;0.70;;;7.00;99.90;;;;;;5069887;28;20025;-37
2023/11/24 09:46:04;;;;;;;2.80;0.52;;;7.00;99.90;;;;;;5063376;28;20032;-38
2023/11/24 09:48:32;;;;;;;3.05;0.63;;;7.20;99.90;;;;;;5070911;28;20016;-37
2023/11/24 09:51:00;;;;;;;4.93;1.00;;;7.20;99.90;;;;;;5065760;28;20075;-36
2023/11/24 09:53:33;;;;;;;2.72;0.60;;;7.30;99.90;;;;;;5082271;28;20866;-36
2023/11/24 09:56:00;;;;;;;3.40;0.95;;;7.40;99.90;;;;;;5080713;28;20956;-36
2023/11/24 09:58:31;;;;;;;5.22;0.60;;;7.30;99.90;;;;;;5080826;28;20073;-36
2023/11/24 10:01:16;;;;;;;3.83;0.80;;;7.30;99.90;;;;;;5080576;28;20544;-36
2023/11/24 10:03:46;;;;;;;4.65;0.90;;;7.30;99.90;;;;;;5079576;28;20653;-36
2023/11/24 10:06:13;;;;;;;4.35;0.90;;;7.40;99.90;;;;;;5079785;28;20031;-37
2023/11/24 10:08:40;;;;;;;6.50;1.10;;;7.40;99.90;;;;;;5080791;28;20077;-37
2023/11/24 10:11:17;;;;;;;5.00;0.93;;;7.50;99.90;;;;;;5079958;28;20024;-37
2023/11/24 10:13:44;;;;;;;3.00;0.80;;;7.50;99.90;;;;;;5081254;28;20020;-36
2023/11/24 10:16:11;;;;;;;4.95;0.82;;;7.50;99.90;;;;;;5080785;28;20050;-37
2023/11/24 10:18:40;;;;;;;7.38;0.90;;;7.40;99.90;;;;;;5080233;28;20024;-37
2023/11/24 10:21:07;;;;;;;4.85;0.85;;;7.40;99.90;;;;;;5081719;28;20300;-37
2023/11/24 10:23:33;;;;;;;4.22;1.00;;;7.40;99.90;;;;;;5080661;28;20471;-37
2023/11/24 10:25:59;;;;;;;3.80;1.08;;;7.30;99.90;;;;;;5080929;28;20521;-38
2023/11/24 10:28:27;;;;;;;6.25;1.00;;;7.20;99.90;;;;;;5081759;28;20042;-37
2023/11/24 10:30:55;;;;;;;5.88;1.00;;;7.20;99.90;;;;;;5080201;28;20463;-38
2023/11/24 10:33:24;;;;;;;4.97;1.17;;;7.10;99.90;;;;;;5080278;28;20373;-37
2023/11/24 10:35:54;;;;;;;4.95;1.05;;;7.10;99.90;;;;;;5080823;28;20043;-38
2023/11/24 10:38:20;;;;;;;5.05;1.38;;;7.10;99.90;;;;;;5081242;28;20482;-37
2023/11/24 10:40:50;;;;;;;4.35;0.88;;;7.10;99.90;;;;;;5080279;28;20139;-36
2023/11/24 10:43:19;;;;;;;2.25;0.90;;;7.10;99.90;;;;;;5080841;28;20054;-37
2023/11/24 10:45:49;;;;;;;3.38;0.82;;;7.20;99.90;;;;;;5080600;28;20028;-37
2023/11/24 10:48:19;;;;;;;1.85;0.73;;;7.20;99.90;;;;;;5080325;28;20020;-36
2023/11/24 10:50:56;;;;;;;3.78;0.65;;;7.20;99.90;;;;;;5080181;28;20047;-37
2023/11/24 10:53:35;;;;;;;4.20;0.93;;;7.10;99.90;;;;;;5079814;28;20031;-36
2023/11/24 10:56:11;;;;;;;5.50;0.80;;;7.10;99.90;;;;;;5080552;28;20575;-36
2023/11/24 10:58:37;;;;;;;2.72;0.93;;;7.20;99.90;;;;;;5080542;28;20025;-37
2023/11/24 11:01:03;;;;;;;5.00;1.13;;;7.30;99.90;;;;;;5079353;28;20490;-37
2023/11/24 11:03:34;;;;;;;3.20;0.90;;;7.50;99.90;;;;;;5080007;28;20020;-37
2023/11/24 11:06:24;;;;;;;4.97;1.08;;;7.50;99.90;;;;;;5069417;28;20097;-37
2023/11/24 11:09:19;;;;;;;6.72;1.17;;;7.50;99.90;;;;;;5079786;28;20020;-37
2023/11/24 11:12:13;;;;;;;3.03;0.85;;;7.40;99.90;;;;;;5080717;28;20459;-37
2023/11/24 11:14:40;;;;;;;4.68;1.20;;;7.40;99.90;;;;;;5080199;28;20075;-42
2023/11/24 11:17:20;;;;;;;8.60;1.50;;;7.50;99.90;;;;;;5080571;28;20070;-38
2023/11/24 11:20:06;;;;;;;6.55;1.45;;;7.50;99.90;;;;;;5084442;28;20389;-38
2023/11/24 11:22:37;;;;;;;5.60;1.10;;;7.50;99.90;;;;;;5084498;28;20101;-42
2023/11/24 11:25:22;;;;;;;6.30;1.35;;;7.50;99.90;;;;;;5083769;28;20056;-38
2023/11/24 11:27:47;;;;;;;7.60;1.23;;;7.50;99.90;;;;;;5084285;28;20119;-43
2023/11/24 11:30:26;;;;;;;7.57;1.70;;;7.50;99.90;;;;;;5083737;28;20531;-38
2023/11/24 11:33:10;;;;;;;6.88;1.40;;;7.50;99.90;;;;;;5084532;28;20141;-41
2023/11/24 11:35:35;;;;;;;6.90;2.42;;;7.60;99.90;;;;;;5083837;28;20035;-37
2023/11/24 11:38:03;;;;;;;9.43;1.48;;;7.70;99.90;;;;;;5082825;28;20379;-38
2023/11/24 11:40:35;;;;;;;7.88;1.40;;;7.80;99.90;;;;;;5083040;28;20116;-37
2023/11/24 11:43:08;;;;;;;6.82;1.58;;;7.90;99.90;;;;;;5083456;28;20035;-37
2023/11/24 11:45:47;;;;;;;7.43;1.67;;;8.00;99.90;;;;;;5084396;28;20103;-40
2023/11/24 11:48:13;;;;;;;11.85;1.98;;;8.00;99.90;;;;;;5084472;28;20073;-40
2023/11/24 11:50:49;;;;;;;9.82;2.00;;;8.00;99.90;;;;;;5082413;28;20142;-37
2023/11/24 11:53:16;;;;;;;8.68;1.70;;;7.90;99.90;;;;;;5072755;28;20035;-37
2023/11/24 11:55:42;;;;;;;8.60;2.08;;;8.00;99.90;;;;;;5078576;28;20035;-37
2023/11/24 11:58:12;;;;;;;11.23;1.80;;;8.00;99.90;;;;;;5075206;28;20131;-37
2023/11/24 12:00:38;;;;;;;7.13;1.73;;;8.20;99.90;;;;;;5080707;28;20055;-37
2023/11/24 12:03:05;;;;;;;7.45;1.70;;;8.30;99.90;;;;;;5063764;28;20021;-37
2023/11/24 12:05:32;;;;;;;8.48;1.90;;;8.40;99.90;;;;;;5063805;28;20055;-36
2023/11/24 12:07:58;;;;;;;9.05;1.80;;;8.60;99.90;;;;;;5073702;28;20028;-47
2023/11/24 12:10:29;;;;;;;7.60;2.03;;;8.70;99.90;;;;;;5064820;28;20032;-37
2023/11/24 12:12:55;;;;;;;7.85;2.00;;;8.80;99.90;;;;;;5074024;28;20388;-37
2023/11/24 12:15:21;;;;;;;12.23;2.00;;;8.80;99.90;;;;;;5062625;28;20681;-37
2023/11/24 12:17:56;;;;;;;11.45;2.80;;;8.90;99.90;;;;;;5074025;28;20021;-37
2023/11/24 12:20:22;;;;;;;11.75;2.60;;;8.90;99.90;;;;;;5063402;28;20072;-37
2023/11/24 12:22:49;;;;;;;10.07;2.05;;;8.90;99.90;;;;;;5074715;28;20128;-37
2023/11/24 12:25:15;;;;;;;10.63;1.70;;;8.80;99.90;;;;;;5057108;28;20029;-37
2023/11/24 12:27:44;;;;;;;9.98;2.08;;;8.80;99.90;;;;;;5070243;28;20131;-36
2023/11/24 12:30:11;;;;;;;11.70;2.00;;;8.80;99.90;;;;;;5061503;28;20028;-45
2023/11/24 12:32:42;;;;;;;9.60;2.10;;;8.80;99.90;;;;;;5072412;28;20024;-45
2023/11/24 12:35:09;;;;;;;7.70;1.98;;;8.70;99.90;;;;;;5062992;28;20238;-45
2023/11/24 12:37:43;;;;;;;12.02;2.47;;;8.70;99.90;;;;;;5071460;28;20020;-48
2023/11/24 12:40:10;;;;;;;8.65;1.98;;;8.70;99.90;;;;;;5063788;28;20559;-45
2023/11/24 12:42:38;;;;;;;9.88;1.98;;;8.60;99.90;;;;;;5070577;28;20107;-45
2023/11/24 12:45:12;;;;;;;9.23;1.67;;;8.60;99.90;;;;;;5066812;28;20419;-49
2023/11/24 12:47:39;;;;;;;10.68;2.17;;;8.70;99.90;;;;;;5068697;28;20036;-45
2023/11/24 12:50:11;;;;;;;9.27;2.03;;;8.70;99.90;;;;;;5068156;28;20498;-44
2023/11/24 12:52:38;;;;;;;;;;;8.70;99.90;;;;;;5082502;28;20098;-45
2023/11/24 12:55:08;;;;;;;9.90;2.15;;;8.60;99.90;;;;;;5081021;28;20025;-45
2023/11/24 12:57:35;;;;;;;9.73;2.05;;;8.50;99.90;;;;;;5082791;28;20027;-45
2023/11/24 13:00:09;;;;;;;6.80;2.05;;;8.40;99.90;;;;;;5082067;28;20107;-45